Terminal Aerodrome Forecast
Issued by NWS

Home | Current Version | Previous Version | Text Only | Print | Product List | Glossary On
Versions: 1 2 3 4 5 6 7 8 9 10 11 12 13 14
328
FTUS45 KTFX 122329
TAFHVR
TAF
KHVR 122329Z 1300/1324 29018KT P6SM SCT090 BKN150
     FM130100 25011KT P6SM SKC
     FM131800 28015G23KT P6SM SCT080 BKN150=

USA.gov is the U.S. government's official web portal to all federal, state and local government web resources and services.